Meadow Vista, California
Current Conditions -  °F | °C
As of 6:55 PM on Friday 21 Nov 2014 (Local Time) from KAUN Reporting Station
Broken Clouds Broken Clouds  
Wind Chill: 52°   Ceiling: 5000
Heat Index: 52°   Visibility: 6mi
Dew Point: 50°   Wind: 0mph
Humidity: 94%   Direction: NA
Pressure: 30.12"   Gusts: NA
Location:  39°N, 121.03°W
Report Text: KAUN 220255Z AUTO 00000KT 6SM FEW005 BKN050 11/10 A3012 RMK AO1
Loading
Personal Weather Stations






























Interactive Weather Map New forecast layout! Learn more

10-Day Weather Forecast

Advertisements
Track Severe Weather on mobile